createdAt,value
2019-03-15T00:01:01.060Z,81.35
2019-03-15T00:03:31.496Z,81.17
2019-03-15T00:06:01.960Z,81.16
2019-03-15T00:08:32.658Z,80.82
2019-03-15T00:11:03.306Z,80.83
2019-03-15T00:13:35.080Z,81.29
2019-03-15T00:16:05.557Z,81.41
2019-03-15T00:18:35.985Z,81.12
2019-03-15T00:21:06.470Z,81.40
2019-03-15T00:23:36.895Z,81.59
2019-03-15T00:26:07.635Z,81.21
2019-03-15T00:28:38.116Z,81.58
2019-03-15T00:31:08.868Z,81.56
2019-03-15T00:33:39.715Z,81.59
2019-03-15T00:36:10.558Z,82.14
2019-03-15T00:38:41.001Z,81.77
2019-03-15T00:41:11.471Z,82.30
2019-03-15T00:43:42.267Z,82.07
2019-03-15T00:46:13.364Z,82.29
2019-03-15T00:48:44.136Z,82.51
2019-03-15T00:51:14.612Z,82.65
2019-03-15T00:53:45.047Z,82.43
2019-03-15T00:56:15.873Z,82.69
2019-03-15T00:58:46.345Z,82.72
2019-03-15T01:01:17.210Z,82.80
2019-03-15T01:03:47.636Z,83.23
2019-03-15T01:06:18.790Z,82.89
2019-03-15T01:08:49.253Z,83.48
2019-03-15T01:11:19.721Z,83.33
2019-03-15T01:13:50.211Z,83.48
2019-03-15T01:16:20.669Z,83.40
2019-03-15T01:18:51.098Z,83.52
2019-03-15T01:21:21.552Z,83.61
2019-03-15T01:23:51.989Z,83.82
2019-03-15T01:26:22.640Z,83.76
2019-03-15T01:28:53.068Z,84.08
2019-03-15T01:31:23.916Z,84.13
2019-03-15T01:33:54.361Z,83.78
2019-03-15T01:36:25.050Z,84.16
2019-03-15T01:38:55.544Z,83.93
2019-03-15T01:41:26.013Z,83.85
2019-03-15T01:43:56.475Z,83.95
2019-03-15T01:46:26.916Z,83.82
2019-03-15T01:48:57.376Z,84.17
2019-03-15T01:51:27.807Z,84.28
2019-03-15T01:53:59.120Z,84.63
2019-03-15T01:56:29.563Z,84.92
2019-03-15T01:59:00.420Z,84.88
2019-03-15T02:01:31.051Z,85.06
2019-03-15T02:04:01.758Z,84.99
2019-03-15T02:06:32.243Z,84.92
2019-03-15T02:09:02.673Z,84.76
2019-03-15T02:11:33.182Z,84.68
2019-03-15T02:14:03.666Z,84.86
2019-03-15T02:16:34.527Z,84.60
2019-03-15T02:19:05.444Z,84.54
2019-03-15T02:21:36.281Z,84.96
2019-03-15T02:24:06.714Z,84.63
2019-03-15T02:26:37.564Z,84.55
2019-03-15T02:29:07.987Z,84.65
2019-03-15T02:31:39.128Z,84.79
2019-03-15T02:34:09.563Z,84.93
2019-03-15T02:36:40.269Z,84.57
2019-03-15T02:39:10.929Z,84.74
2019-03-15T02:41:41.389Z,84.82
2019-03-15T02:44:12.648Z,84.89
2019-03-15T02:46:43.548Z,84.63
2019-03-15T02:49:14.002Z,84.85
2019-03-15T02:51:44.460Z,84.71
2019-03-15T02:54:14.892Z,84.83
2019-03-15T02:56:45.397Z,84.86
2019-03-15T02:59:16.198Z,84.82
2019-03-15T03:01:46.945Z,84.72
2019-03-15T03:04:17.410Z,84.82
2019-03-15T03:06:47.844Z,84.62
2019-03-15T03:09:19.293Z,84.65
2019-03-15T03:11:50.459Z,84.50
2019-03-15T03:14:21.216Z,84.53
2019-03-15T03:16:51.692Z,84.37
2019-03-15T03:19:22.267Z,84.54
2019-03-15T03:21:53.248Z,84.84
2019-03-15T03:24:24.543Z,84.70
2019-03-15T03:26:55.090Z,84.80
2019-03-15T03:29:25.618Z,85.11
2019-03-15T03:31:56.402Z,85.14
2019-03-15T03:34:26.854Z,84.94
2019-03-15T03:36:58.169Z,84.99
2019-03-15T03:39:29.120Z,85.04
2019-03-15T03:41:59.961Z,85.25
2019-03-15T03:44:30.420Z,84.91
2019-03-15T03:47:00.878Z,85.07
2019-03-15T03:49:32.068Z,85.31
2019-03-15T03:52:02.732Z,85.05
2019-03-15T03:54:33.645Z,84.99
2019-03-15T03:57:04.908Z,85.08
2019-03-15T03:59:35.732Z,85.19
2019-03-15T04:02:06.195Z,85.16
2019-03-15T04:04:36.975Z,85.49
2019-03-15T04:07:07.533Z,85.62
2019-03-15T04:09:38.305Z,85.56
2019-03-15T04:12:08.775Z,85.63
2019-03-15T04:14:39.227Z,85.40
2019-03-15T04:17:09.691Z,85.44
2019-03-15T04:19:40.503Z,85.29
2019-03-15T04:22:11.248Z,85.05
2019-03-15T04:24:42.952Z,84.92
2019-03-15T04:27:13.390Z,85.19
2019-03-15T04:29:43.861Z,85.39
2019-03-15T04:32:14.291Z,85.25
2019-03-15T04:34:44.995Z,85.14
2019-03-15T04:37:15.463Z,85.06
2019-03-15T04:39:46.308Z,85.12
2019-03-15T04:42:17.221Z,85.14
2019-03-15T04:44:47.701Z,85.19
2019-03-15T04:47:18.538Z,85.44
2019-03-15T04:49:49.378Z,85.31
2019-03-15T04:52:19.853Z,85.04
2019-03-15T04:54:50.287Z,84.83
2019-03-15T04:57:20.722Z,84.68
2019-03-15T04:59:51.200Z,84.49
2019-03-15T05:02:21.637Z,84.14
2019-03-15T05:04:52.073Z,84.27
2019-03-15T05:07:23.194Z,84.66
2019-03-15T05:09:53.616Z,84.42
2019-03-15T05:12:24.045Z,84.25
2019-03-15T05:14:54.523Z,84.59
2019-03-15T05:17:24.956Z,84.26
2019-03-15T05:19:55.728Z,84.50
2019-03-15T05:22:26.620Z,85.01
2019-03-15T05:24:57.056Z,84.98
2019-03-15T05:27:28.244Z,85.10
2019-03-15T05:29:58.964Z,85.08
2019-03-15T05:32:31.006Z,85.44
2019-03-15T05:35:02.184Z,85.29
2019-03-15T05:37:32.821Z,84.88
2019-03-15T05:40:03.872Z,85.06
2019-03-15T05:42:34.356Z,84.71
2019-03-15T05:45:04.923Z,85.35
2019-03-15T05:47:35.413Z,85.28
2019-03-15T05:50:06.810Z,84.91
2019-03-15T05:52:37.661Z,84.99
2019-03-15T05:55:09.609Z,85.29
2019-03-15T05:57:40.072Z,85.29
2019-03-15T06:00:12.217Z,85.06
2019-03-15T06:02:42.645Z,85.36
2019-03-15T06:05:13.368Z,84.89
2019-03-15T06:07:43.850Z,85.48
2019-03-15T06:10:14.770Z,84.35
2019-03-15T06:12:45.200Z,84.63
2019-03-15T06:15:15.682Z,84.58
2019-03-15T06:17:46.121Z,84.26
2019-03-15T06:20:16.555Z,84.74
2019-03-15T06:22:47.408Z,84.49
2019-03-15T06:25:17.840Z,84.22
2019-03-15T06:27:48.292Z,84.12
2019-03-15T06:30:18.751Z,83.98
2019-03-15T06:32:49.217Z,83.89
2019-03-15T06:35:20.423Z,83.79
2019-03-15T06:37:50.936Z,83.95
2019-03-15T06:40:22.069Z,84.03
2019-03-15T06:42:53.215Z,84.02
2019-03-15T06:45:24.059Z,84.29
2019-03-15T06:47:54.493Z,84.68
2019-03-15T06:50:25.322Z,84.76
2019-03-15T06:52:56.195Z,84.46
2019-03-15T06:55:27.000Z,84.40
2019-03-15T06:57:57.757Z,84.29
2019-03-15T07:00:28.612Z,83.72
2019-03-15T07:02:59.049Z,84.27
2019-03-15T07:05:30.155Z,83.81
2019-03-15T07:08:00.631Z,83.80
2019-03-15T07:10:31.064Z,83.08
2019-03-15T07:13:01.925Z,83.68
2019-03-15T07:15:32.577Z,83.62
2019-03-15T07:18:03.005Z,83.23
2019-03-15T07:20:33.743Z,82.84
2019-03-15T07:23:04.229Z,82.94
2019-03-15T07:25:35.052Z,82.95
2019-03-15T07:28:05.491Z,83.05
2019-03-15T07:30:35.964Z,83.50
2019-03-15T07:33:06.392Z,82.99
2019-03-15T07:35:36.828Z,83.19
2019-03-15T07:38:08.116Z,82.48
2019-03-15T07:40:38.565Z,82.51
2019-03-15T07:43:09.961Z,82.75
2019-03-15T07:45:41.309Z,82.89
2019-03-15T07:48:21.759Z,83.50
2019-03-15T07:50:43.900Z,82.37
2019-03-15T07:53:15.044Z,83.00
2019-03-15T07:55:45.480Z,82.13
2019-03-15T07:58:16.236Z,82.27
2019-03-15T08:00:46.725Z,83.13
2019-03-15T08:03:17.195Z,83.25
2019-03-15T08:05:47.628Z,83.00
2019-03-15T08:08:18.108Z,82.81
2019-03-15T08:10:48.918Z,82.43
2019-03-15T08:13:21.367Z,82.34
2019-03-15T08:15:51.892Z,83.13
2019-03-15T08:18:22.324Z,82.57
2019-03-15T08:20:53.074Z,82.47
2019-03-15T08:23:23.860Z,83.44
2019-03-15T08:25:55.063Z,84.01
2019-03-15T08:28:26.371Z,85.08
2019-03-15T08:30:57.353Z,85.02
2019-03-15T08:33:28.116Z,86.61
2019-03-15T08:35:58.911Z,87.35
2019-03-15T08:38:29.391Z,87.22
2019-03-15T08:40:59.824Z,87.27
2019-03-15T08:43:30.630Z,86.69
2019-03-15T08:46:02.997Z,87.07
2019-03-15T08:48:33.707Z,86.96
2019-03-15T08:51:04.901Z,87.67
2019-03-15T08:53:35.380Z,87.71
2019-03-15T08:56:05.896Z,87.84
2019-03-15T08:58:36.340Z,88.14
2019-03-15T09:01:10.773Z,88.33
2019-03-15T09:03:40.386Z,88.54
2019-03-15T09:06:11.146Z,89.56
2019-03-15T09:08:41.615Z,88.69
2019-03-15T09:11:12.049Z,88.91
2019-03-15T09:13:42.757Z,89.26
2019-03-15T09:16:13.235Z,89.30
2019-03-15T09:18:43.667Z,88.35
2019-03-15T09:21:14.100Z,87.86
2019-03-15T09:23:44.587Z,88.45
2019-03-15T09:26:15.017Z,89.08
2019-03-15T09:28:45.499Z,89.82
2019-03-15T09:31:15.992Z,88.83
2019-03-15T09:33:46.425Z,89.39
2019-03-15T09:36:17.224Z,89.29
2019-03-15T09:38:47.842Z,90.00
2019-03-15T09:41:30.869Z,90.28
2019-03-15T09:43:50.801Z,90.24
2019-03-15T09:46:21.278Z,89.69
2019-03-15T09:48:53.228Z,90.16
2019-03-15T09:51:23.664Z,90.69
2019-03-15T09:53:54.595Z,89.77
2019-03-15T09:56:27.868Z,89.51
2019-03-15T09:58:57.706Z,88.86
2019-03-15T10:01:35.238Z,89.33
2019-03-15T10:04:00.673Z,89.82
2019-03-15T10:06:31.827Z,89.59
2019-03-15T10:09:02.291Z,89.13
2019-03-15T10:11:33.246Z,90.23
2019-03-15T10:14:03.684Z,90.22
2019-03-15T10:16:34.221Z,89.62
2019-03-15T10:19:04.753Z,90.32
2019-03-15T10:21:35.501Z,89.99
2019-03-15T10:24:05.973Z,90.13
2019-03-15T10:26:36.404Z,90.54
2019-03-15T10:29:15.440Z,90.88
2019-03-15T10:31:39.039Z,90.33
2019-03-15T10:34:10.008Z,90.84
2019-03-15T10:36:40.800Z,89.84
2019-03-15T10:39:11.282Z,89.73
2019-03-15T10:41:41.864Z,89.76
2019-03-15T10:44:12.645Z,90.10
2019-03-15T10:46:43.483Z,89.41
2019-03-15T10:49:14.642Z,90.11
2019-03-15T10:51:45.568Z,90.14
2019-03-15T10:54:16.089Z,90.81
2019-03-15T10:56:46.555Z,90.59
2019-03-15T10:59:16.975Z,91.55
2019-03-15T11:01:47.443Z,91.35
2019-03-15T11:04:18.232Z,91.80
2019-03-15T11:06:48.667Z,91.21
2019-03-15T11:09:19.140Z,91.94
2019-03-15T11:11:49.572Z,92.02
2019-03-15T11:14:20.969Z,92.64
2019-03-15T11:16:51.488Z,93.06
2019-03-15T11:19:21.918Z,93.30
2019-03-15T11:21:52.675Z,93.33
2019-03-15T11:24:23.856Z,92.92
2019-03-15T11:26:54.289Z,92.79
2019-03-15T11:29:25.172Z,93.50
2019-03-15T11:31:55.665Z,92.87
2019-03-15T11:34:26.087Z,92.99
2019-03-15T11:36:58.571Z,93.30
2019-03-15T11:39:29.013Z,92.75
2019-03-15T11:42:00.512Z,93.18
2019-03-15T11:44:30.943Z,93.48
2019-03-15T11:47:01.739Z,93.41
2019-03-15T11:49:32.545Z,94.08
2019-03-15T11:52:03.355Z,93.73
2019-03-15T11:54:33.823Z,94.03
2019-03-15T11:57:04.391Z,93.90
2019-03-15T11:59:36.267Z,95.04
2019-03-15T12:02:07.034Z,94.85
2019-03-15T12:04:37.461Z,95.11
2019-03-15T12:07:10.261Z,95.01
2019-03-15T12:09:41.113Z,94.86
2019-03-15T12:12:11.640Z,95.30
2019-03-15T12:14:42.178Z,94.88
2019-03-15T12:17:12.690Z,95.38
2019-03-15T12:19:43.116Z,94.86
2019-03-15T12:22:14.533Z,94.30
2019-03-15T12:24:44.976Z,94.47
2019-03-15T12:27:15.400Z,95.23
2019-03-15T12:29:46.184Z,95.23
2019-03-15T12:32:16.988Z,95.34
2019-03-15T12:34:47.413Z,95.93
2019-03-15T12:37:17.904Z,96.85
2019-03-15T12:39:48.718Z,97.33
2019-03-15T12:42:19.617Z,98.00
2019-03-15T12:44:50.079Z,97.54
2019-03-15T12:47:20.500Z,97.63
2019-03-15T12:49:51.256Z,98.22
2019-03-15T12:52:22.140Z,98.82
2019-03-15T12:54:53.043Z,99.36
2019-03-15T12:57:23.468Z,99.20
2019-03-15T12:59:54.371Z,98.61
2019-03-15T13:02:25.523Z,97.80
2019-03-15T13:04:56.296Z,97.67
2019-03-15T13:07:27.543Z,97.94
2019-03-15T13:09:58.450Z,96.79
2019-03-15T13:12:28.876Z,95.96
2019-03-15T13:14:59.363Z,95.77
2019-03-15T13:17:29.795Z,95.74
2019-03-15T13:20:00.284Z,95.32
2019-03-15T13:22:30.805Z,95.28
2019-03-15T13:25:01.270Z,94.93
2019-03-15T13:27:31.710Z,93.88
2019-03-15T13:30:02.276Z,92.66
2019-03-15T13:32:33.949Z,91.75
2019-03-15T13:35:05.041Z,91.92
2019-03-15T13:37:35.899Z,91.87
2019-03-15T13:40:07.068Z,90.98
2019-03-15T13:42:37.501Z,91.20
2019-03-15T13:45:09.547Z,90.72
2019-03-15T13:47:40.057Z,90.12
2019-03-15T13:50:11.553Z,89.95
2019-03-15T13:52:42.451Z,88.87
2019-03-15T13:55:13.079Z,89.15
2019-03-15T13:57:44.185Z,89.12
2019-03-15T14:00:15.314Z,89.16
2019-03-15T14:02:45.751Z,89.88
2019-03-15T14:05:16.190Z,89.88
2019-03-15T14:07:46.728Z,90.08
2019-03-15T14:10:17.568Z,88.83
2019-03-15T14:12:48.004Z,90.03
2019-03-15T14:15:18.581Z,89.64
2019-03-15T14:17:49.022Z,90.14
2019-03-15T14:20:19.461Z,89.10
2019-03-15T14:22:50.327Z,89.56
2019-03-15T14:25:20.786Z,89.46
2019-03-15T14:27:51.541Z,89.00
2019-03-15T14:30:22.650Z,89.39
2019-03-15T14:32:53.142Z,90.86
2019-03-15T14:35:24.146Z,91.09
2019-03-15T14:37:54.835Z,91.86
2019-03-15T14:40:25.499Z,91.73
2019-03-15T14:42:55.964Z,90.89
2019-03-15T14:45:26.796Z,89.76
2019-03-15T14:47:57.623Z,90.25
2019-03-15T14:50:28.049Z,89.88
2019-03-15T14:52:58.525Z,89.80
2019-03-15T14:55:29.316Z,88.98
2019-03-15T14:58:00.450Z,88.60
2019-03-15T15:00:31.128Z,88.35
2019-03-15T15:03:03.315Z,88.78
2019-03-15T15:05:35.820Z,87.90
2019-03-15T15:08:06.256Z,85.78
2019-03-15T15:10:36.725Z,84.50
2019-03-15T15:13:08.096Z,82.97
2019-03-15T15:15:38.523Z,82.83
2019-03-15T15:18:09.032Z,84.15
2019-03-15T15:20:39.507Z,85.32
2019-03-15T15:23:10.259Z,85.05
2019-03-15T15:25:41.432Z,85.51
2019-03-15T15:28:12.308Z,84.53
2019-03-15T15:30:42.766Z,85.26
2019-03-15T15:33:13.621Z,84.26
2019-03-15T15:35:44.457Z,84.14
2019-03-15T15:38:14.907Z,84.58
2019-03-15T15:40:45.351Z,84.37
2019-03-15T15:43:15.877Z,84.40
2019-03-15T15:45:46.311Z,83.22
2019-03-15T15:48:16.761Z,84.19
2019-03-15T15:50:47.281Z,84.91
2019-03-15T15:53:17.681Z,83.43
2019-03-15T15:55:48.131Z,84.02
2019-03-15T15:58:18.642Z,84.41
2019-03-15T16:00:49.060Z,84.18
2019-03-15T16:03:19.499Z,84.01
2019-03-15T16:05:49.972Z,83.94
2019-03-15T16:08:20.772Z,83.49
2019-03-15T16:10:51.900Z,83.35
2019-03-15T16:13:22.832Z,83.26
2019-03-15T16:15:53.275Z,84.10
2019-03-15T16:18:26.684Z,83.11
2019-03-15T16:20:56.594Z,83.82
2019-03-15T16:23:30.183Z,84.00
2019-03-15T16:25:59.147Z,84.39
2019-03-15T16:28:31.728Z,84.56
2019-03-15T16:31:01.791Z,84.84
2019-03-15T16:33:32.934Z,85.27
2019-03-15T16:36:03.476Z,84.62
2019-03-15T16:38:34.297Z,85.02
2019-03-15T16:41:04.862Z,84.91
2019-03-15T16:43:35.354Z,84.78
2019-03-15T16:46:06.823Z,84.89
2019-03-15T16:48:37.560Z,84.83
2019-03-15T16:51:18.975Z,84.36
2019-03-15T16:53:40.167Z,84.57
2019-03-15T16:56:10.598Z,84.49
2019-03-15T16:58:45.711Z,83.51
2019-03-15T17:01:13.201Z,83.47
2019-03-15T17:03:43.644Z,83.43
2019-03-15T17:06:14.493Z,83.07
2019-03-15T17:08:45.245Z,82.63
2019-03-15T17:11:15.965Z,81.10
2019-03-15T17:13:48.593Z,81.31
2019-03-15T17:16:19.480Z,81.63
2019-03-15T17:18:50.297Z,80.21
2019-03-15T17:21:20.799Z,80.99
2019-03-15T17:23:51.552Z,80.43
2019-03-15T17:26:22.295Z,81.03
2019-03-15T17:28:58.619Z,81.15
2019-03-15T17:31:26.327Z,80.86
2019-03-15T17:33:56.769Z,80.49
2019-03-15T17:36:27.265Z,80.10
2019-03-15T17:38:58.063Z,76.73
2019-03-15T17:41:28.532Z,74.79
2019-03-15T17:43:59.346Z,74.29
2019-03-15T17:46:29.799Z,74.14
2019-03-15T17:49:00.246Z,74.21
2019-03-15T17:51:30.737Z,74.35
2019-03-15T17:54:01.227Z,73.00
2019-03-15T17:56:31.958Z,72.85
2019-03-15T17:59:12.345Z,72.27
2019-03-15T18:01:35.296Z,71.20
2019-03-15T18:04:06.383Z,72.22
2019-03-15T18:06:36.972Z,67.42
2019-03-15T18:09:07.772Z,66.21
2019-03-15T18:11:38.824Z,63.49
2019-03-15T18:14:11.244Z,63.07
2019-03-15T18:16:41.687Z,62.36
2019-03-15T18:19:12.670Z,63.03
2019-03-15T18:21:43.456Z,63.33
2019-03-15T18:24:14.191Z,63.38
2019-03-15T18:26:44.806Z,63.11
2019-03-15T18:29:25.740Z,63.39
2019-03-15T18:31:47.395Z,63.62
2019-03-15T18:34:18.276Z,64.01
2019-03-15T18:36:51.008Z,65.55
2019-03-15T18:39:21.748Z,65.18
2019-03-15T18:41:52.183Z,67.66
2019-03-15T18:44:22.679Z,68.27
2019-03-15T18:46:53.103Z,67.81
2019-03-15T18:49:23.532Z,67.84
2019-03-15T18:51:54.354Z,67.92
2019-03-15T18:54:24.853Z,67.27
2019-03-15T18:56:55.675Z,67.23
2019-03-15T18:59:38.959Z,67.20
2019-03-15T19:01:58.306Z,67.15
2019-03-15T19:04:29.151Z,67.69
2019-03-15T19:06:59.641Z,67.96
2019-03-15T19:09:30.076Z,67.79
2019-03-15T19:12:00.916Z,67.35
2019-03-15T19:14:31.527Z,67.69
2019-03-15T19:17:02.668Z,66.93
2019-03-15T19:19:33.943Z,68.00
2019-03-15T19:22:04.762Z,67.86
2019-03-15T19:24:35.206Z,67.74
2019-03-15T19:27:06.817Z,67.25
2019-03-15T19:29:37.406Z,67.98
2019-03-15T19:32:07.903Z,67.99
2019-03-15T19:34:38.324Z,68.44
2019-03-15T19:37:09.147Z,68.43
2019-03-15T19:39:39.980Z,68.60
2019-03-15T19:42:10.431Z,68.14
2019-03-15T19:44:41.296Z,68.71
2019-03-15T19:47:12.052Z,68.67
2019-03-15T19:49:43.835Z,68.29
2019-03-15T19:52:14.691Z,68.95
2019-03-15T19:54:45.271Z,68.61
2019-03-15T19:57:16.167Z,69.99
2019-03-15T19:59:46.721Z,69.19
2019-03-15T20:02:17.840Z,68.16
2019-03-15T20:04:48.266Z,68.58
2019-03-15T20:07:19.828Z,68.02
2019-03-15T20:09:53.312Z,67.64
2019-03-15T20:12:24.106Z,67.42
2019-03-15T20:14:54.774Z,68.13
2019-03-15T20:17:25.344Z,67.88
2019-03-15T20:19:56.336Z,68.41
2019-03-15T20:22:27.437Z,67.50
2019-03-15T20:24:58.742Z,67.54
2019-03-15T20:27:29.260Z,65.45
2019-03-15T20:30:00.383Z,66.61
2019-03-15T20:32:30.935Z,67.16
2019-03-15T20:35:01.750Z,65.72
2019-03-15T20:37:32.867Z,65.43
2019-03-15T20:40:03.371Z,66.04
2019-03-15T20:42:33.805Z,66.70
2019-03-15T20:45:04.427Z,66.62
2019-03-15T20:47:36.283Z,65.98
2019-03-15T20:50:07.752Z,65.25
2019-03-15T20:52:40.781Z,66.31
2019-03-15T20:55:12.074Z,67.31
2019-03-15T20:57:43.100Z,66.60
2019-03-15T21:00:14.861Z,66.93
2019-03-15T21:02:47.616Z,67.46
2019-03-15T21:05:18.810Z,66.94
2019-03-15T21:07:49.689Z,67.77
2019-03-15T21:10:20.160Z,67.44
2019-03-15T21:12:50.644Z,67.29
2019-03-15T21:15:21.084Z,67.89
2019-03-15T21:17:52.059Z,68.15
2019-03-15T21:20:23.137Z,68.12
2019-03-15T21:22:53.584Z,68.44
2019-03-15T21:25:24.088Z,68.49
2019-03-15T21:27:55.576Z,68.60
2019-03-15T21:30:26.007Z,68.47
2019-03-15T21:32:56.874Z,69.27
2019-03-15T21:35:27.314Z,68.94
2019-03-15T21:37:57.755Z,69.21
2019-03-15T21:40:28.233Z,69.23
2019-03-15T21:42:58.675Z,69.11
2019-03-15T21:45:29.330Z,69.87
2019-03-15T21:48:00.111Z,69.63
2019-03-15T21:50:30.883Z,69.38
2019-03-15T21:53:01.360Z,69.38
2019-03-15T21:55:31.799Z,69.56
2019-03-15T21:58:03.127Z,69.68
2019-03-15T22:00:33.899Z,70.24
2019-03-15T22:03:04.320Z,70.25
2019-03-15T22:05:34.829Z,70.74
2019-03-15T22:08:05.632Z,70.59
2019-03-15T22:10:37.438Z,70.59
2019-03-15T22:13:07.917Z,71.49
2019-03-15T22:15:38.715Z,71.34
2019-03-15T22:18:09.168Z,71.62
2019-03-15T22:20:39.666Z,71.79
2019-03-15T22:23:10.416Z,71.86
2019-03-15T22:25:40.949Z,71.91
2019-03-15T22:28:11.459Z,71.98
2019-03-15T22:30:41.879Z,72.16
2019-03-15T22:33:12.688Z,72.09
2019-03-15T22:35:43.116Z,72.60
2019-03-15T22:38:25.754Z,72.16
2019-03-15T22:40:46.789Z,72.09
2019-03-15T22:43:17.796Z,72.37
2019-03-15T22:45:48.582Z,71.83
2019-03-15T22:48:19.038Z,71.54
2019-03-15T22:50:49.465Z,71.77
2019-03-15T22:53:20.982Z,71.41
2019-03-15T22:55:51.823Z,71.12
2019-03-15T22:58:22.681Z,71.31
2019-03-15T23:00:53.211Z,71.27
2019-03-15T23:03:23.646Z,71.18
2019-03-15T23:05:54.070Z,71.98
2019-03-15T23:08:24.553Z,71.98
2019-03-15T23:10:55.374Z,72.02
2019-03-15T23:13:25.804Z,72.21
2019-03-15T23:15:56.278Z,72.38
2019-03-15T23:18:27.039Z,72.30
2019-03-15T23:20:57.468Z,71.27
2019-03-15T23:23:28.347Z,71.70
2019-03-15T23:25:58.773Z,71.48
2019-03-15T23:28:29.575Z,71.53
2019-03-15T23:31:00.028Z,71.58
2019-03-15T23:33:30.614Z,71.51
2019-03-15T23:36:01.095Z,70.96
2019-03-15T23:38:31.515Z,71.85
2019-03-15T23:41:01.939Z,71.54
2019-03-15T23:43:32.445Z,71.95
2019-03-15T23:46:03.250Z,70.88
2019-03-15T23:48:33.704Z,71.19
2019-03-15T23:51:04.240Z,70.99
2019-03-15T23:53:35.085Z,71.25
2019-03-15T23:56:05.941Z,71.56
2019-03-15T23:58:36.383Z,71.94
